createdAt,value
2023-09-27T00:02:56.847Z,99160.56
2023-09-27T00:06:00.418Z,99201.72
2023-09-27T00:09:05.042Z,99195.28
2023-09-27T00:12:08.152Z,99198.00
2023-09-27T00:15:12.878Z,99199.00
2023-09-27T00:18:16.180Z,99200.91
2023-09-27T00:21:18.789Z,99198.19
2023-09-27T00:24:21.752Z,99199.34
2023-09-27T00:27:24.352Z,99195.84
2023-09-27T00:30:27.520Z,99195.19
2023-09-27T00:33:30.249Z,99189.94
2023-09-27T00:36:34.280Z,99192.75
2023-09-27T00:39:37.739Z,99190.19
2023-09-27T00:42:40.567Z,99172.94
2023-09-27T00:45:43.251Z,99184.59
2023-09-27T00:48:46.892Z,99180.84
2023-09-27T00:51:49.799Z,99184.53
2023-09-27T00:54:53.622Z,99189.88
2023-09-27T00:57:56.535Z,99194.63
2023-09-27T01:01:00.894Z,99191.28
2023-09-27T01:04:03.840Z,99195.94
2023-09-27T01:07:08.573Z,99187.00
2023-09-27T01:10:11.976Z,99198.75
2023-09-27T01:13:15.121Z,99196.09
2023-09-27T01:16:17.808Z,99196.38
2023-09-27T01:19:20.836Z,99191.03
2023-09-27T01:22:23.456Z,99195.75
2023-09-27T01:25:34.408Z,99198.47
2023-09-27T01:28:38.096Z,99195.13
2023-09-27T01:31:41.250Z,99196.28
2023-09-27T01:34:43.765Z,99192.78
2023-09-27T01:37:46.931Z,99202.06
2023-09-27T01:40:49.495Z,99197.59
2023-09-27T01:43:52.369Z,99127.22
2023-09-27T01:46:55.135Z,99201.16
2023-09-27T01:49:58.970Z,99193.53
2023-09-27T01:53:01.876Z,99203.09
2023-09-27T01:56:05.287Z,99200.31
2023-09-27T01:59:08.133Z,99194.78
2023-09-27T02:02:11.076Z,99191.09
2023-09-27T02:05:14.204Z,99193.63
2023-09-27T02:08:17.748Z,99198.91
2023-09-27T02:11:26.703Z,99195.41
2023-09-27T02:14:29.609Z,99194.50
2023-09-27T02:17:32.629Z,99200.94
2023-09-27T02:20:35.699Z,99197.16
2023-09-27T02:23:38.765Z,99199.09
2023-09-27T02:26:41.630Z,99204.69
2023-09-27T02:29:44.390Z,99207.31
2023-09-27T02:32:47.500Z,99201.09
2023-09-27T02:35:50.383Z,99144.09
2023-09-27T02:38:53.675Z,99210.22
2023-09-27T02:41:58.166Z,99202.16
2023-09-27T02:45:01.222Z,99204.94
2023-09-27T02:48:05.215Z,99179.50
2023-09-27T02:51:08.355Z,99203.38
2023-09-27T02:54:11.828Z,99200.66
2023-09-27T02:57:15.062Z,99196.31
2023-09-27T03:00:20.051Z,99186.50
2023-09-27T03:03:22.972Z,99192.22
2023-09-27T03:06:26.019Z,99195.19
2023-09-27T03:09:28.950Z,99200.91
2023-09-27T03:12:31.693Z,99198.53
2023-09-27T03:15:35.655Z,99194.56
2023-09-27T03:18:38.944Z,99196.62
2023-09-27T03:21:42.115Z,99205.91
2023-09-27T03:24:45.660Z,99201.47
2023-09-27T03:27:48.948Z,99203.34
2023-09-27T03:30:52.130Z,99196.53
2023-09-27T03:33:55.385Z,99192.19
2023-09-27T03:36:58.677Z,99199.78
2023-09-27T03:40:02.777Z,99194.78
2023-09-27T03:43:06.057Z,99190.56
2023-09-27T03:46:09.093Z,99189.66
2023-09-27T03:49:14.208Z,99192.34
2023-09-27T03:52:17.143Z,99196.06
2023-09-27T03:55:19.874Z,99200.69
2023-09-27T03:58:22.869Z,99192.53
2023-09-27T04:01:25.634Z,99196.13
2023-09-27T04:04:28.616Z,99155.13
2023-09-27T04:07:31.314Z,99198.38
2023-09-27T04:10:35.173Z,99195.88
2023-09-27T04:13:37.756Z,99199.72
2023-09-27T04:16:40.825Z,99201.63
2023-09-27T04:19:43.650Z,99176.88
2023-09-27T04:22:48.744Z,99187.19
2023-09-27T04:25:51.715Z,99191.66
2023-09-27T04:28:55.486Z,99191.72
2023-09-27T04:31:58.170Z,99195.47
2023-09-27T04:35:01.237Z,99201.06
2023-09-27T04:38:05.376Z,99210.06
2023-09-27T04:41:09.744Z,99198.41
2023-09-27T04:44:12.330Z,99197.69
2023-09-27T04:47:15.792Z,99203.22
2023-09-27T04:50:18.503Z,99204.22
2023-09-27T04:53:21.855Z,99211.44
2023-09-27T04:56:24.479Z,99210.56
2023-09-27T04:59:27.447Z,99210.69
2023-09-27T05:02:30.292Z,99203.38
2023-09-27T05:05:33.688Z,99206.16
2023-09-27T05:08:36.615Z,99192.59
2023-09-27T05:11:39.560Z,99216.37
2023-09-27T05:14:42.611Z,99220.41
2023-09-27T05:17:45.980Z,99221.34
2023-09-27T05:20:48.635Z,99216.00
2023-09-27T05:23:51.657Z,99222.22
2023-09-27T05:26:54.295Z,99226.63
2023-09-27T05:29:58.183Z,99228.44
2023-09-27T05:33:01.039Z,99231.97
2023-09-27T05:36:04.153Z,99223.91
2023-09-27T05:39:09.281Z,99231.72
2023-09-27T05:42:12.145Z,99233.38
2023-09-27T05:45:14.861Z,99236.81
2023-09-27T05:48:18.183Z,99243.16
2023-09-27T05:51:20.937Z,99237.81
2023-09-27T05:54:23.734Z,99243.88
2023-09-27T05:57:26.792Z,99231.66
2023-09-27T06:00:38.807Z,99264.22
2023-09-27T06:03:41.766Z,99251.56
2023-09-27T06:06:44.516Z,99247.78
2023-09-27T06:09:47.430Z,99258.03
2023-09-27T06:12:50.059Z,99261.72
2023-09-27T06:15:52.973Z,99264.25
2023-09-27T06:18:56.231Z,99265.09
2023-09-27T06:21:59.320Z,99267.94
2023-09-27T06:25:02.244Z,99269.19
2023-09-27T06:28:05.551Z,99267.81
2023-09-27T06:31:08.233Z,99239.56
2023-09-27T06:34:11.275Z,99283.66
2023-09-27T06:37:15.123Z,99294.75
2023-09-27T06:40:20.422Z,99285.69
2023-09-27T06:43:23.134Z,99298.59
2023-09-27T06:46:30.009Z,99295.53
2023-09-27T06:49:38.348Z,99302.78
2023-09-27T06:52:41.623Z,99303.66
2023-09-27T06:55:48.945Z,99304.78
2023-09-27T06:58:52.702Z,99309.56
2023-09-27T07:01:55.398Z,99316.84
2023-09-27T07:04:58.140Z,99319.59
2023-09-27T07:08:01.476Z,99311.94
2023-09-27T07:11:09.540Z,99323.34
2023-09-27T07:14:13.551Z,99313.63
2023-09-27T07:17:16.542Z,99323.47
2023-09-27T07:20:34.468Z,99315.87
2023-09-27T07:23:38.378Z,99317.63
2023-09-27T07:26:42.602Z,99323.97
2023-09-27T07:29:45.548Z,99324.31
2023-09-27T07:32:48.842Z,99323.44
2023-09-27T07:35:53.323Z,99335.28
2023-09-27T07:38:59.030Z,99332.31
2023-09-27T07:42:02.074Z,99337.87
2023-09-27T07:45:06.608Z,99335.63
2023-09-27T07:48:09.676Z,99337.06
2023-09-27T07:51:13.400Z,99334.38
2023-09-27T07:54:16.568Z,99340.50
2023-09-27T07:57:19.344Z,99322.25
2023-09-27T08:00:28.582Z,99335.75
2023-09-27T08:03:31.645Z,99333.66
2023-09-27T08:06:37.165Z,99341.81
2023-09-27T08:09:41.768Z,99346.28
2023-09-27T08:12:45.091Z,99339.91
2023-09-27T08:15:50.438Z,99348.53
2023-09-27T08:18:53.420Z,99347.38
2023-09-27T08:21:59.670Z,99350.00
2023-09-27T08:25:02.808Z,99348.03
2023-09-27T08:28:09.920Z,99335.88
2023-09-27T08:31:12.540Z,99352.19
2023-09-27T08:34:15.480Z,99357.72
2023-09-27T08:37:19.134Z,99361.81
2023-09-27T08:40:22.814Z,99364.75
2023-09-27T08:43:26.941Z,99361.09
2023-09-27T08:46:30.478Z,99352.41
2023-09-27T08:49:33.156Z,99351.75
2023-09-27T08:52:36.017Z,99348.69
2023-09-27T08:55:39.493Z,99345.66
2023-09-27T08:58:42.418Z,99356.97
2023-09-27T09:01:46.137Z,99359.22
2023-09-27T09:04:49.091Z,99354.09
2023-09-27T09:07:54.487Z,99350.66
2023-09-27T09:10:57.586Z,99354.97
2023-09-27T09:14:06.045Z,99351.94
2023-09-27T09:17:09.358Z,99353.16
2023-09-27T09:20:28.501Z,99345.41
2023-09-27T09:23:33.876Z,99350.47
2023-09-27T09:26:36.600Z,99344.59
2023-09-27T09:29:47.171Z,99350.88
2023-09-27T09:32:51.452Z,99347.38
2023-09-27T09:35:55.598Z,99348.53
2023-09-27T09:39:14.856Z,99348.69
2023-09-27T09:42:36.688Z,99351.44
2023-09-27T09:45:44.236Z,99351.22
2023-09-27T09:48:47.237Z,99352.09
2023-09-27T09:51:51.249Z,99351.50
2023-09-27T09:55:11.782Z,99335.88
2023-09-27T09:58:37.328Z,99339.38
2023-09-27T10:01:41.290Z,99335.06
2023-09-27T10:04:44.314Z,99330.25
2023-09-27T10:07:47.928Z,99325.88
2023-09-27T10:10:50.705Z,99330.56
2023-09-27T10:13:53.732Z,99332.66
2023-09-27T10:16:56.724Z,99338.16
2023-09-27T10:20:13.870Z,99333.47
2023-09-27T10:23:16.983Z,99321.84
2023-09-27T10:26:28.350Z,99323.00
2023-09-27T10:29:31.212Z,99324.88
2023-09-27T10:32:34.458Z,99308.53
2023-09-27T10:35:37.486Z,99310.22
2023-09-27T10:39:00.605Z,99304.59
2023-09-27T10:42:03.599Z,99307.53
2023-09-27T10:45:10.011Z,99308.13
2023-09-27T10:48:20.278Z,99306.97
2023-09-27T10:51:26.176Z,99308.69
2023-09-27T10:54:30.501Z,99295.50
2023-09-27T10:57:34.565Z,99302.94
2023-09-27T11:00:50.670Z,99303.81
2023-09-27T11:04:00.261Z,99293.38
2023-09-27T11:07:03.529Z,99287.63
2023-09-27T11:10:06.653Z,99281.69
2023-09-27T11:13:14.836Z,99282.44
2023-09-27T11:16:19.656Z,99273.91
2023-09-27T11:19:29.820Z,99252.53
2023-09-27T11:22:32.383Z,99264.72
2023-09-27T11:25:37.402Z,99258.72
2023-09-27T11:28:40.110Z,99260.72
2023-09-27T11:31:43.084Z,99250.59
2023-09-27T11:34:58.125Z,99247.41
2023-09-27T11:38:08.624Z,99250.31
2023-09-27T11:41:15.684Z,99247.09
2023-09-27T11:44:24.775Z,99246.44
2023-09-27T11:47:27.555Z,99246.75
2023-09-27T11:50:30.577Z,99240.16
2023-09-27T11:53:33.188Z,99240.66
2023-09-27T11:56:37.343Z,99229.47
2023-09-27T11:59:40.289Z,99228.16
2023-09-27T12:02:55.896Z,99179.78
2023-09-27T12:06:00.670Z,99224.97
2023-09-27T12:09:06.413Z,99209.00
2023-09-27T12:12:09.763Z,99210.75
2023-09-27T12:15:12.389Z,99202.38
2023-09-27T12:18:15.299Z,99209.22
2023-09-27T12:21:18.028Z,99209.94
2023-09-27T12:24:20.911Z,99202.19
2023-09-27T12:27:23.710Z,99201.16
2023-09-27T12:30:28.897Z,99198.88
2023-09-27T12:33:31.526Z,99197.19
2023-09-27T12:36:34.501Z,99193.37
2023-09-27T12:39:38.698Z,99181.75
2023-09-27T12:42:41.542Z,99178.78
2023-09-27T12:45:44.200Z,99176.47
2023-09-27T12:48:47.226Z,99173.75
2023-09-27T12:51:50.439Z,99174.84
2023-09-27T12:54:53.325Z,99146.28
2023-09-27T12:57:55.957Z,99163.22
2023-09-27T13:00:59.116Z,99160.78
2023-09-27T13:04:01.913Z,99153.75
2023-09-27T13:07:04.843Z,99146.84
2023-09-27T13:10:08.127Z,99140.06
2023-09-27T13:13:11.344Z,99142.88
2023-09-27T13:16:13.925Z,99139.56
2023-09-27T13:19:16.764Z,99143.44
2023-09-27T13:22:19.746Z,99133.38
2023-09-27T13:25:22.695Z,99143.78
2023-09-27T13:28:25.293Z,99140.84
2023-09-27T13:31:34.770Z,99134.22
2023-09-27T13:34:37.594Z,99116.00
2023-09-27T13:37:40.433Z,99126.72
2023-09-27T13:40:44.697Z,99128.78
2023-09-27T13:43:48.739Z,99125.22
2023-09-27T13:46:51.721Z,99108.94
2023-09-27T13:49:54.749Z,99115.56
2023-09-27T13:52:57.430Z,99113.16
2023-09-27T13:56:00.463Z,99119.56
2023-09-27T13:59:03.204Z,99117.22
2023-09-27T14:02:07.737Z,99112.59
2023-09-27T14:05:11.811Z,99120.22
2023-09-27T14:08:17.524Z,99117.63
2023-09-27T14:11:21.948Z,99101.66
2023-09-27T14:14:27.783Z,99105.16
2023-09-27T14:17:31.214Z,99101.81
2023-09-27T14:20:33.883Z,99110.66
2023-09-27T14:23:37.778Z,99100.06
2023-09-27T14:26:44.069Z,99105.19
2023-09-27T14:29:47.017Z,99089.44
2023-09-27T14:32:49.632Z,99094.37
2023-09-27T14:35:53.406Z,99096.66
2023-09-27T14:38:59.110Z,99092.06
2023-09-27T14:42:02.625Z,99095.97
2023-09-27T14:45:16.868Z,99095.03
2023-09-27T14:48:31.518Z,99070.94
2023-09-27T14:51:34.740Z,99102.47
2023-09-27T14:54:37.670Z,99097.97
2023-09-27T14:57:42.018Z,99103.91
2023-09-27T15:00:44.846Z,99067.16
2023-09-27T15:03:47.654Z,99100.66
2023-09-27T15:06:50.613Z,99104.00
2023-09-27T15:09:53.412Z,99091.22
2023-09-27T15:12:56.503Z,99084.41
2023-09-27T15:15:59.222Z,99095.41
2023-09-27T15:19:02.365Z,99091.94
2023-09-27T15:22:05.093Z,99089.38
2023-09-27T15:25:08.962Z,99087.47
2023-09-27T15:28:11.549Z,99089.44
2023-09-27T15:31:15.366Z,99088.53
2023-09-27T15:34:18.009Z,99085.34
2023-09-27T15:37:21.041Z,99086.03
2023-09-27T15:40:24.655Z,99086.72
2023-09-27T15:43:27.723Z,99087.91
2023-09-27T15:46:30.963Z,99083.69
2023-09-27T15:49:34.033Z,99080.06
2023-09-27T15:52:36.805Z,99077.28
2023-09-27T15:55:39.951Z,99072.72
2023-09-27T15:58:42.671Z,99071.13
2023-09-27T16:01:46.427Z,99072.19
2023-09-27T16:04:52.794Z,99065.09
2023-09-27T16:07:56.663Z,99068.81
2023-09-27T16:10:59.616Z,99067.53
2023-09-27T16:14:02.263Z,99071.28
2023-09-27T16:17:05.403Z,99064.47
2023-09-27T16:20:08.724Z,99074.25
2023-09-27T16:23:12.106Z,99068.94
2023-09-27T16:26:14.737Z,99074.69
2023-09-27T16:29:18.210Z,99068.09
2023-09-27T16:32:21.438Z,99074.34
2023-09-27T16:35:24.833Z,99070.16
2023-09-27T16:38:27.494Z,99069.41
2023-09-27T16:41:31.766Z,99063.41
2023-09-27T16:44:34.262Z,99065.91
2023-09-27T16:47:37.554Z,99066.28
2023-09-27T16:50:40.871Z,99067.78
2023-09-27T16:53:44.087Z,99065.03
2023-09-27T16:56:47.795Z,99061.31
2023-09-27T16:59:50.666Z,99073.03
2023-09-27T17:02:53.245Z,99066.09
2023-09-27T17:05:56.240Z,99068.88
2023-09-27T17:08:59.148Z,99072.03
2023-09-27T17:12:05.598Z,99070.06
2023-09-27T17:15:11.978Z,99068.25
2023-09-27T17:18:19.231Z,99071.78
2023-09-27T17:21:23.129Z,99067.00
2023-09-27T17:24:26.519Z,99046.47
2023-09-27T17:27:29.364Z,99062.78
2023-09-27T17:30:32.897Z,99065.34
2023-09-27T17:33:36.513Z,99069.72
2023-09-27T17:36:39.871Z,99068.66
2023-09-27T17:39:42.976Z,99065.69
2023-09-27T17:42:47.697Z,99069.09
2023-09-27T17:45:52.863Z,99070.50
2023-09-27T17:49:00.784Z,99065.03
2023-09-27T17:52:03.951Z,99064.37
2023-09-27T17:55:09.692Z,99067.66
2023-09-27T17:58:12.547Z,99064.59
2023-09-27T18:01:15.849Z,99061.00
2023-09-27T18:04:18.969Z,99060.22
2023-09-27T18:07:21.772Z,99056.75
2023-09-27T18:10:25.422Z,99058.47
2023-09-27T18:13:28.742Z,99062.00
2023-09-27T18:16:32.239Z,99061.09
2023-09-27T18:19:35.229Z,99067.44
2023-09-27T18:22:38.590Z,99051.06
2023-09-27T18:25:44.582Z,99049.50
2023-09-27T18:28:48.099Z,99056.37
2023-09-27T18:31:50.928Z,99054.97
2023-09-27T18:34:56.591Z,99060.22
2023-09-27T18:38:01.607Z,99062.41
2023-09-27T18:41:05.083Z,99069.19
2023-09-27T18:44:08.411Z,99016.63
2023-09-27T18:47:12.201Z,99067.78
2023-09-27T18:50:15.456Z,99067.09
2023-09-27T18:53:19.065Z,99062.19
2023-09-27T18:56:32.200Z,99067.56
2023-09-27T18:59:39.209Z,99071.34
2023-09-27T19:02:42.224Z,99069.84
2023-09-27T19:05:46.642Z,99056.16
2023-09-27T19:08:56.195Z,99071.47
2023-09-27T19:11:59.222Z,99059.22
2023-09-27T19:15:02.052Z,99059.91
2023-09-27T19:18:06.125Z,99058.13
2023-09-27T19:21:11.628Z,99056.72
2023-09-27T19:24:14.823Z,99061.41
2023-09-27T19:27:19.194Z,99048.94
2023-09-27T19:30:25.581Z,99057.53
2023-09-27T19:33:30.247Z,99055.13
2023-09-27T19:36:33.301Z,99055.31
2023-09-27T19:39:36.902Z,99046.81
2023-09-27T19:42:43.599Z,99057.63
2023-09-27T19:45:47.069Z,99047.09
2023-09-27T19:48:50.380Z,99051.91
2023-09-27T19:51:53.284Z,99051.44
2023-09-27T19:54:56.423Z,99052.62
2023-09-27T19:57:59.308Z,99050.22
2023-09-27T20:01:03.036Z,99047.59
2023-09-27T20:04:06.905Z,99045.84
2023-09-27T20:07:09.568Z,99042.56
2023-09-27T20:10:12.944Z,99046.47
2023-09-27T20:13:15.433Z,99051.56
2023-09-27T20:16:18.656Z,99037.47
2023-09-27T20:19:21.643Z,99048.31
2023-09-27T20:22:24.660Z,99045.00
2023-09-27T20:25:27.438Z,99046.28
2023-09-27T20:28:30.482Z,99047.47
2023-09-27T20:31:34.000Z,99036.44
2023-09-27T20:34:37.267Z,98944.81
2023-09-27T20:37:39.968Z,99046.56
2023-09-27T20:40:42.979Z,99042.41
2023-09-27T20:43:46.896Z,99042.50
2023-09-27T20:46:51.081Z,99045.72
2023-09-27T20:49:54.219Z,99046.13
2023-09-27T20:52:57.481Z,99051.84
2023-09-27T20:56:07.829Z,99047.56
2023-09-27T20:59:11.163Z,99017.84
2023-09-27T21:02:14.014Z,99024.44
2023-09-27T21:05:17.081Z,99047.19
2023-09-27T21:08:19.712Z,99043.78
2023-09-27T21:11:24.736Z,99047.69
2023-09-27T21:14:28.184Z,99045.25
2023-09-27T21:17:31.940Z,99035.09
2023-09-27T21:20:34.589Z,99041.53
2023-09-27T21:23:37.535Z,99048.16
2023-09-27T21:26:42.017Z,98967.00
2023-09-27T21:29:44.984Z,99053.84
2023-09-27T21:32:47.657Z,99049.59
2023-09-27T21:35:55.140Z,99051.62
2023-09-27T21:38:57.811Z,99050.03
2023-09-27T21:42:00.761Z,99047.41
2023-09-27T21:45:03.500Z,99048.47
2023-09-27T21:48:06.618Z,99046.63
2023-09-27T21:51:09.320Z,99046.78
2023-09-27T21:54:12.143Z,99046.91
2023-09-27T21:57:15.988Z,99041.56
2023-09-27T22:00:21.423Z,99039.72
2023-09-27T22:03:24.434Z,99019.66
2023-09-27T22:06:27.262Z,99033.19
2023-09-27T22:09:33.764Z,98985.03
2023-09-27T22:12:38.078Z,99030.38
2023-09-27T22:15:41.913Z,99029.44
2023-09-27T22:18:50.806Z,99033.00
2023-09-27T22:21:56.669Z,98912.53
2023-09-27T22:24:59.231Z,99022.81
2023-09-27T22:28:02.092Z,99025.19
2023-09-27T22:31:12.978Z,99015.06
2023-09-27T22:34:24.759Z,98991.44
2023-09-27T22:37:27.814Z,99023.44
2023-09-27T22:40:32.900Z,99008.94
2023-09-27T22:43:38.813Z,99008.09
2023-09-27T22:46:41.738Z,99012.66
2023-09-27T22:49:44.530Z,99006.41
2023-09-27T22:52:49.333Z,99016.59
2023-09-27T22:55:59.093Z,98961.81
2023-09-27T22:59:02.280Z,99016.78
2023-09-27T23:02:10.501Z,99008.81
2023-09-27T23:05:33.348Z,99012.50
2023-09-27T23:08:39.139Z,99010.75
2023-09-27T23:11:42.229Z,99011.72
2023-09-27T23:15:03.916Z,99002.69
2023-09-27T23:18:13.431Z,99014.44
2023-09-27T23:21:25.814Z,99006.38
2023-09-27T23:24:31.289Z,99018.50
2023-09-27T23:27:34.138Z,99020.34
2023-09-27T23:30:50.984Z,99021.31
2023-09-27T23:33:53.980Z,99013.44
2023-09-27T23:37:12.462Z,99012.31
2023-09-27T23:40:15.814Z,99018.66
2023-09-27T23:43:19.553Z,99015.44
2023-09-27T23:46:22.272Z,99005.19
2023-09-27T23:49:25.348Z,99002.22
2023-09-27T23:52:29.605Z,99004.00
2023-09-27T23:55:41.762Z,99004.34
2023-09-27T23:58:45.141Z,99009.13
